sensor_id;sensor_type;location;lat;lon;timestamp;pressure;altitude;pressure_sealevel;temperature;humidity
62011;BME280;47967;51.756;10.174;2023-04-01T04:03:32;97793.72;;;11.02;80.24
62011;BME280;47967;51.756;10.174;2023-04-01T04:07:35;97795.94;;;11.05;80.28
62011;BME280;47967;51.756;10.174;2023-04-01T04:11:40;97795.94;;;11.05;80.11
62011;BME280;47967;51.756;10.174;2023-04-01T04:15:43;97798.81;;;10.98;80.05
62011;BME280;47967;51.756;10.174;2023-04-01T04:19:47;97805.59;;;11.01;80.45
62011;BME280;47967;51.756;10.174;2023-04-01T04:23:50;97795.63;;;11.01;80.33
62011;BME280;47967;51.756;10.174;2023-04-01T04:27:54;97809.59;;;10.98;80.33
62011;BME280;47967;51.756;10.174;2023-04-01T04:31:57;97803.03;;;10.89;80.90
62011;BME280;47967;51.756;10.174;2023-04-01T04:36:03;97811.13;;;10.89;80.97
62011;BME280;47967;51.756;10.174;2023-04-01T04:40:07;97804.41;;;10.92;80.74
62011;BME280;47967;51.756;10.174;2023-04-01T04:44:10;97809.53;;;10.93;80.53
62011;BME280;47967;51.756;10.174;2023-04-01T04:48:15;97800.66;;;10.93;80.05
62011;BME280;47967;51.756;10.174;2023-04-01T04:52:21;97809.22;;;10.89;79.87
62011;BME280;47967;51.756;10.174;2023-04-01T04:56:23;97807.59;;;10.88;79.70
62011;BME280;47967;51.756;10.174;2023-04-01T05:00:42;97807.09;;;10.92;79.52
62011;BME280;47967;51.756;10.174;2023-04-01T05:04:52;97807.84;;;10.87;79.81
62011;BME280;47967;51.756;10.174;2023-04-01T05:08:56;97814.00;;;10.82;80.00
62011;BME280;47967;51.756;10.174;2023-04-01T05:12:59;97818.28;;;10.78;79.99
62011;BME280;47967;51.756;10.174;2023-04-01T05:17:01;97824.06;;;10.48;81.12
62011;BME280;47967;51.756;10.174;2023-04-01T05:21:06;97824.63;;;10.50;81.62
62011;BME280;47967;51.756;10.174;2023-04-01T05:25:11;97825.28;;;10.57;81.61
62011;BME280;47967;51.756;10.174;2023-04-01T05:29:14;97821.09;;;10.49;81.74
62011;BME280;47967;51.756;10.174;2023-04-01T05:33:18;97829.91;;;10.62;81.24
62011;BME280;47967;51.756;10.174;2023-04-01T05:37:21;97829.69;;;10.63;81.33
62011;BME280;47967;51.756;10.174;2023-04-01T05:41:25;97835.38;;;10.67;81.41
62011;BME280;47967;51.756;10.174;2023-04-01T05:45:28;97832.38;;;10.63;81.35
62011;BME280;47967;51.756;10.174;2023-04-01T05:49:45;97836.94;;;10.63;81.64
62011;BME280;47967;51.756;10.174;2023-04-01T05:53:48;97841.34;;;10.52;81.81
62011;BME280;47967;51.756;10.174;2023-04-01T05:57:52;97833.44;;;10.62;81.67
62011;BME280;47967;51.756;10.174;2023-04-01T06:01:55;97838.22;;;10.77;81.28
62011;BME280;47967;51.756;10.174;2023-04-01T06:06:01;97838.22;;;10.77;81.20
62011;BME280;47967;51.756;10.174;2023-04-01T06:10:12;97837.66;;;10.97;80.78
62011;BME280;47967;51.756;10.174;2023-04-01T06:14:28;97843.69;;;11.04;80.35
62011;BME280;47967;51.756;10.174;2023-04-01T06:18:50;97840.38;;;11.19;80.32
62011;BME280;47967;51.756;10.174;2023-04-01T06:23:10;97843.69;;;11.27;79.79
62011;BME280;47967;51.756;10.174;2023-04-01T06:27:29;97841.22;;;11.75;78.02
62011;BME280;47967;51.756;10.174;2023-04-01T06:31:54;97841.69;;;11.94;76.68
62011;BME280;47967;51.756;10.174;2023-04-01T06:36:11;97847.56;;;12.18;76.06
62011;BME280;47967;51.756;10.174;2023-04-01T06:45:04;97844.28;;;11.83;76.75
62011;BME280;47967;51.756;10.174;2023-04-01T06:49:54;97852.81;;;11.75;76.58
62011;BME280;47967;51.756;10.174;2023-04-01T06:54:20;97853.97;;;11.79;77.05
62011;BME280;47967;51.756;10.174;2023-04-01T06:58:42;97864.25;;;11.82;77.13
62011;BME280;47967;51.756;10.174;2023-04-01T07:02:48;97858.88;;;11.88;77.08
62011;BME280;47967;51.756;10.174;2023-04-01T07:06:58;97861.91;;;11.91;77.13
62011;BME280;47967;51.756;10.174;2023-04-01T07:11:04;97862.19;;;12.17;76.21
62011;BME280;47967;51.756;10.174;2023-04-01T07:15:33;97860.00;;;12.19;75.94
62011;BME280;47967;51.756;10.174;2023-04-01T07:19:45;97860.25;;;12.12;75.48
62011;BME280;47967;51.756;10.174;2023-04-01T07:23:51;97861.19;;;12.01;75.45
62011;BME280;47967;51.756;10.174;2023-04-01T07:28:32;97873.91;;;12.00;75.74
62011;BME280;47967;51.756;10.174;2023-04-01T07:32:47;97872.88;;;11.79;75.82
62011;BME280;47967;51.756;10.174;2023-04-01T07:36:58;97876.19;;;11.87;76.08
62011;BME280;47967;51.756;10.174;2023-04-01T07:41:10;97875.16;;;11.93;75.98
62011;BME280;47967;51.756;10.174;2023-04-01T07:45:23;97883.63;;;11.96;75.46
62011;BME280;47967;51.756;10.174;2023-04-01T07:49:32;97879.31;;;12.00;75.19
62011;BME280;47967;51.756;10.174;2023-04-01T07:53:46;97885.34;;;12.08;75.20
62011;BME280;47967;51.756;10.174;2023-04-01T07:57:59;97887.19;;;12.35;74.60
62011;BME280;47967;51.756;10.174;2023-04-01T08:02:15;97895.03;;;12.36;74.31
62011;BME280;47967;51.756;10.174;2023-04-01T08:06:29;97898.00;;;12.72;73.66
62011;BME280;47967;51.756;10.174;2023-04-01T08:10:38;97896.78;;;12.53;74.21
62011;BME280;47967;51.756;10.174;2023-04-01T08:15:19;97895.47;;;12.55;73.35
62011;BME280;47967;51.756;10.174;2023-04-01T08:19:51;97905.59;;;12.75;73.71
62011;BME280;47967;51.756;10.174;2023-04-01T08:24:11;97907.69;;;12.63;73.26
62011;BME280;47967;51.756;10.174;2023-04-01T08:28:20;97915.81;;;12.68;73.07
62011;BME280;47967;51.756;10.174;2023-04-01T08:32:30;97913.97;;;12.74;73.29
62011;BME280;47967;51.756;10.174;2023-04-01T08:36:37;97917.84;;;12.83;72.70
62011;BME280;47967;51.756;10.174;2023-04-01T08:41:00;97912.75;;;12.92;73.10
62011;BME280;47967;51.756;10.174;2023-04-01T08:45:41;97923.56;;;12.92;72.97
62011;BME280;47967;51.756;10.174;2023-04-01T08:50:04;97918.28;;;12.70;73.10
62011;BME280;47967;51.756;10.174;2023-04-01T08:54:33;97922.09;;;12.74;73.16
62011;BME280;47967;51.756;10.174;2023-04-01T08:59:02;97922.97;;;12.79;73.85
62011;BME280;47967;51.756;10.174;2023-04-01T09:03:32;97928.53;;;13.05;73.75
62011;BME280;47967;51.756;10.174;2023-04-01T09:07:44;97926.72;;;13.21;72.63
62011;BME280;47967;51.756;10.174;2023-04-01T09:12:07;97927.69;;;13.05;73.29
62011;BME280;47967;51.756;10.174;2023-04-01T09:16:24;97937.53;;;13.16;72.62
62011;BME280;47967;51.756;10.174;2023-04-01T09:20:44;97938.41;;;13.32;72.62
62011;BME280;47967;51.756;10.174;2023-04-01T09:25:09;97940.53;;;13.25;72.89
62011;BME280;47967;51.756;10.174;2023-04-01T09:29:28;97939.31;;;13.43;72.79
62011;BME280;47967;51.756;10.174;2023-04-01T09:38:28;97947.06;;;13.92;70.84
62011;BME280;47967;51.756;10.174;2023-04-01T09:42:56;97948.69;;;13.93;70.68
62011;BME280;47967;51.756;10.174;2023-04-01T09:47:20;97951.97;;;14.01;70.52
62011;BME280;47967;51.756;10.174;2023-04-01T09:51:33;97955.97;;;13.72;71.08
62011;BME280;47967;51.756;10.174;2023-04-01T09:56:05;97957.69;;;14.04;71.15
62011;BME280;47967;51.756;10.174;2023-04-01T10:00:50;97960.63;;;13.87;71.50
62011;BME280;47967;51.756;10.174;2023-04-01T10:05:19;97963.31;;;13.87;71.20
62011;BME280;47967;51.756;10.174;2023-04-01T10:09:50;97967.13;;;13.86;70.95
62011;BME280;47967;51.756;10.174;2023-04-01T10:14:10;97966.22;;;13.65;71.87
62011;BME280;47967;51.756;10.174;2023-04-01T10:18:40;97979.03;;;13.85;71.61
62011;BME280;47967;51.756;10.174;2023-04-01T10:23:13;97982.09;;;14.04;71.74
62011;BME280;47967;51.756;10.174;2023-04-01T10:32:30;97970.38;;;13.88;71.14
62011;BME280;47967;51.756;10.174;2023-04-01T10:36:47;97974.97;;;13.83;72.27
62011;BME280;47967;51.756;10.174;2023-04-01T10:41:18;97976.66;;;13.94;71.49
62011;BME280;47967;51.756;10.174;2023-04-01T10:50:52;97973.16;;;14.14;71.39
62011;BME280;47967;51.756;10.174;2023-04-01T10:55:35;97982.13;;;14.30;71.07
62011;BME280;47967;51.756;10.174;2023-04-01T11:00:41;97973.22;;;14.61;70.84
62011;BME280;47967;51.756;10.174;2023-04-01T11:15:08;97978.13;;;14.95;67.19
62011;BME280;47967;51.756;10.174;2023-04-01T11:19:49;97980.78;;;15.26;66.75
62011;BME280;47967;51.756;10.174;2023-04-01T11:24:09;97983.53;;;15.20;66.87
62011;BME280;47967;51.756;10.174;2023-04-01T11:29:09;97982.72;;;15.20;66.48
62011;BME280;47967;51.756;10.174;2023-04-01T11:33:23;97979.94;;;15.35;66.52
62011;BME280;47967;51.756;10.174;2023-04-01T11:37:36;97990.31;;;15.23;66.30
62011;BME280;47967;51.756;10.174;2023-04-01T11:42:12;97988.72;;;15.07;65.85
62011;BME280;47967;51.756;10.174;2023-04-01T11:46:46;97999.28;;;15.08;66.95
62011;BME280;47967;51.756;10.174;2023-04-01T11:51:17;98003.34;;;15.26;66.72
62011;BME280;47967;51.756;10.174;2023-04-01T11:55:27;98006.81;;;15.47;65.85
62011;BME280;47967;51.756;10.174;2023-04-01T11:59:46;98003.31;;;15.47;65.24
62011;BME280;47967;51.756;10.174;2023-04-01T12:04:18;98007.84;;;15.77;64.93
62011;BME280;47967;51.756;10.174;2023-04-01T12:08:33;98012.19;;;15.78;64.15
62011;BME280;47967;51.756;10.174;2023-04-01T12:12:46;98007.84;;;15.67;64.23
62011;BME280;47967;51.756;10.174;2023-04-01T12:17:04;98010.94;;;15.40;64.81
62011;BME280;47967;51.756;10.174;2023-04-01T12:21:20;98014.81;;;14.82;66.46
62011;BME280;47967;51.756;10.174;2023-04-01T12:25:39;98025.88;;;14.65;67.32
62011;BME280;47967;51.756;10.174;2023-04-01T12:30:11;98032.31;;;14.17;69.54
62011;BME280;47967;51.756;10.174;2023-04-01T12:34:33;98033.19;;;13.70;72.80
62011;BME280;47967;51.756;10.174;2023-04-01T12:39:00;98030.19;;;13.66;74.04
62011;BME280;47967;51.756;10.174;2023-04-01T12:43:32;98034.75;;;14.29;73.19
62011;BME280;47967;51.756;10.174;2023-04-01T12:48:03;98046.81;;;14.90;70.15
62011;BME280;47967;51.756;10.174;2023-04-01T12:52:10;98047.31;;;14.61;70.56
62011;BME280;47967;51.756;10.174;2023-04-01T12:56:18;98040.88;;;14.93;69.22
62011;BME280;47967;51.756;10.174;2023-04-01T13:00:35;98052.19;;;14.64;70.15
62011;BME280;47967;51.756;10.174;2023-04-01T13:09:40;98060.38;;;14.69;69.07
62011;BME280;47967;51.756;10.174;2023-04-01T13:14:18;98054.13;;;15.26;68.03
62011;BME280;47967;51.756;10.174;2023-04-01T13:18:39;98056.19;;;15.96;64.90
62011;BME280;47967;51.756;10.174;2023-04-01T13:22:56;98061.97;;;16.44;63.73
62011;BME280;47967;51.756;10.174;2023-04-01T13:27:08;98069.16;;;16.70;62.04
62011;BME280;47967;51.756;10.174;2023-04-01T13:31:25;98064.53;;;16.70;61.20
62011;BME280;47967;51.756;10.174;2023-04-01T13:35:38;98065.41;;;17.05;60.69
62011;BME280;47967;51.756;10.174;2023-04-01T13:39:57;98066.91;;;16.77;59.78
62011;BME280;47967;51.756;10.174;2023-04-01T13:44:09;98073.25;;;16.72;60.32
62011;BME280;47967;51.756;10.174;2023-04-01T13:48:34;98079.25;;;16.69;60.29
62011;BME280;47967;51.756;10.174;2023-04-01T13:53:07;98080.19;;;16.44;61.00
62011;BME280;47967;51.756;10.174;2023-04-01T13:57:23;98083.66;;;15.99;62.78
62011;BME280;47967;51.756;10.174;2023-04-01T14:01:36;98092.16;;;15.72;63.61
62011;BME280;47967;51.756;10.174;2023-04-01T14:05:53;98090.03;;;15.23;66.76
62011;BME280;47967;51.756;10.174;2023-04-01T14:10:07;98093.81;;;14.96;67.42
62011;BME280;47967;51.756;10.174;2023-04-01T14:14:23;98094.38;;;15.08;68.35
62011;BME280;47967;51.756;10.174;2023-04-01T14:18:37;98101.41;;;14.99;69.38
62011;BME280;47967;51.756;10.174;2023-04-01T14:22:52;98109.03;;;15.07;69.64
62011;BME280;47967;51.756;10.174;2023-04-01T14:27:11;98117.44;;;15.16;69.66
62011;BME280;47967;51.756;10.174;2023-04-01T14:31:39;98117.19;;;15.23;68.60
62011;BME280;47967;51.756;10.174;2023-04-01T14:35:50;98114.19;;;15.40;68.01
62011;BME280;47967;51.756;10.174;2023-04-01T14:40:27;98126.16;;;15.54;66.40
62011;BME280;47967;51.756;10.174;2023-04-01T14:44:45;98129.94;;;15.63;65.62
62011;BME280;47967;51.756;10.174;2023-04-01T14:48:57;98134.00;;;15.66;65.25
62011;BME280;47967;51.756;10.174;2023-04-01T14:53:13;98138.63;;;15.65;66.00
62011;BME280;47967;51.756;10.174;2023-04-01T14:57:23;98135.66;;;15.57;65.97
62011;BME280;47967;51.756;10.174;2023-04-01T15:01:39;98137.56;;;15.51;66.33
62011;BME280;47967;51.756;10.174;2023-04-01T15:05:51;98140.56;;;15.49;66.78
62011;BME280;47967;51.756;10.174;2023-04-01T15:10:01;98148.16;;;15.47;67.16
62011;BME280;47967;51.756;10.174;2023-04-01T15:14:19;98151.97;;;15.41;67.42
62011;BME280;47967;51.756;10.174;2023-04-01T15:18:37;98161.47;;;15.44;67.42
62011;BME280;47967;51.756;10.174;2023-04-01T15:22:53;98162.56;;;15.37;67.47
62011;BME280;47967;51.756;10.174;2023-04-01T15:27:14;98172.00;;;14.94;68.61
62011;BME280;47967;51.756;10.174;2023-04-01T15:31:27;98184.19;;;14.17;68.94
62011;BME280;47967;51.756;10.174;2023-04-01T15:35:40;98190.44;;;13.80;69.32
62011;BME280;47967;51.756;10.174;2023-04-01T15:39:52;98191.13;;;13.60;68.93
62011;BME280;47967;51.756;10.174;2023-04-01T15:43:56;98202.69;;;13.50;69.33
62011;BME280;47967;51.756;10.174;2023-04-01T15:48:01;98207.59;;;13.53;70.23
62011;BME280;47967;51.756;10.174;2023-04-01T15:52:14;98209.84;;;13.67;70.36
62011;BME280;47967;51.756;10.174;2023-04-01T15:56:27;98219.25;;;13.54;70.71
62011;BME280;47967;51.756;10.174;2023-04-01T16:00:34;98219.19;;;13.49;71.29
62011;BME280;47967;51.756;10.174;2023-04-01T16:04:54;98220.78;;;13.44;71.57
62011;BME280;47967;51.756;10.174;2023-04-01T16:09:14;98232.88;;;13.37;71.95
62011;BME280;47967;51.756;10.174;2023-04-01T16:13:30;98239.97;;;13.38;72.07
62011;BME280;47967;51.756;10.174;2023-04-01T16:17:59;98243.66;;;13.32;72.97
62011;BME280;47967;51.756;10.174;2023-04-01T16:22:12;98248.47;;;13.24;73.18
62011;BME280;47967;51.756;10.174;2023-04-01T16:26:22;98252.00;;;13.25;72.05
62011;BME280;47967;51.756;10.174;2023-04-01T16:30:35;98257.31;;;13.15;71.65
62011;BME280;47967;51.756;10.174;2023-04-01T16:34:43;98262.72;;;13.15;72.29
62011;BME280;47967;51.756;10.174;2023-04-01T16:38:50;98266.81;;;12.95;72.89
62011;BME280;47967;51.756;10.174;2023-04-01T16:43:06;98268.78;;;12.77;73.15
62011;BME280;47967;51.756;10.174;2023-04-01T16:47:15;98269.53;;;12.73;73.93
62011;BME280;47967;51.756;10.174;2023-04-01T16:51:19;98284.31;;;12.43;75.35
62011;BME280;47967;51.756;10.174;2023-04-01T16:55:24;98285.19;;;12.31;75.67
62011;BME280;47967;51.756;10.174;2023-04-01T16:59:43;98288.34;;;12.23;76.59
62011;BME280;47967;51.756;10.174;2023-04-01T17:03:51;98302.28;;;12.15;76.73
62011;BME280;47967;51.756;10.174;2023-04-01T17:08:00;98299.56;;;12.15;77.02
62011;BME280;47967;51.756;10.174;2023-04-01T17:12:13;98311.13;;;12.10;76.82
62011;BME280;47967;51.756;10.174;2023-04-01T17:16:44;98315.88;;;12.03;77.34
62011;BME280;47967;51.756;10.174;2023-04-01T17:20:54;98321.31;;;11.91;78.22
62011;BME280;47967;51.756;10.174;2023-04-01T17:25:09;98327.81;;;11.90;78.71
62011;BME280;47967;51.756;10.174;2023-04-01T17:29:23;98336.00;;;11.95;78.27
62011;BME280;47967;51.756;10.174;2023-04-01T17:33:39;98348.63;;;12.24;77.63
62011;BME280;47967;51.756;10.174;2023-04-01T17:37:53;98352.41;;;12.40;77.62
62011;BME280;47967;51.756;10.174;2023-04-01T17:42:05;98359.38;;;12.36;78.14
62011;BME280;47967;51.756;10.174;2023-04-01T17:46:28;98363.94;;;12.35;78.72
62011;BME280;47967;51.756;10.174;2023-04-01T17:50:47;98369.88;;;12.32;79.07
62011;BME280;47967;51.756;10.174;2023-04-01T17:55:15;98375.19;;;12.27;79.45
62011;BME280;47967;51.756;10.174;2023-04-01T17:59:33;98383.31;;;12.27;79.08
62011;BME280;47967;51.756;10.174;2023-04-01T18:03:54;98391.16;;;12.11;79.47
62011;BME280;47967;51.756;10.174;2023-04-01T18:08:16;98398.38;;;12.23;80.00
62011;BME280;47967;51.756;10.174;2023-04-01T18:12:29;98404.84;;;12.22;79.70
62011;BME280;47967;51.756;10.174;2023-04-01T18:16:43;98412.72;;;12.23;79.33
62011;BME280;47967;51.756;10.174;2023-04-01T18:20:54;98419.19;;;12.22;79.22
62011;BME280;47967;51.756;10.174;2023-04-01T18:25:14;98435.69;;;12.21;78.98
62011;BME280;47967;51.756;10.174;2023-04-01T18:29:26;98447.69;;;12.13;79.64
62011;BME280;47967;51.756;10.174;2023-04-01T18:33:34;98446.81;;;11.95;79.39
62011;BME280;47967;51.756;10.174;2023-04-01T18:37:45;98461.19;;;11.84;78.20
62011;BME280;47967;51.756;10.174;2023-04-01T18:41:56;98466.06;;;11.58;76.82
62011;BME280;47967;51.756;10.174;2023-04-01T18:46:05;98469.72;;;11.52;75.77
62011;BME280;47967;51.756;10.174;2023-04-01T18:50:21;98485.38;;;11.14;76.13
62011;BME280;47967;51.756;10.174;2023-04-01T18:54:27;98491.50;;;10.98;76.61
62011;BME280;47967;51.756;10.174;2023-04-01T18:58:41;98503.59;;;11.07;76.60
62011;BME280;47967;51.756;10.174;2023-04-01T19:02:51;98516.16;;;11.01;76.44
62011;BME280;47967;51.756;10.174;2023-04-01T19:06:59;98517.66;;;10.85;76.11
62011;BME280;47967;51.756;10.174;2023-04-01T19:11:07;98536.19;;;10.82;76.33
62011;BME280;47967;51.756;10.174;2023-04-01T19:15:23;98537.22;;;10.69;75.69
62011;BME280;47967;51.756;10.174;2023-04-01T19:19:39;98556.34;;;10.67;74.96
62011;BME280;47967;51.756;10.174;2023-04-01T19:24:15;98566.38;;;11.02;74.34
62011;BME280;47967;51.756;10.174;2023-04-01T19:28:31;98575.03;;;11.04;73.96
62011;BME280;47967;51.756;10.174;2023-04-01T19:32:47;98583.00;;;10.87;74.33
62011;BME280;47967;51.756;10.174;2023-04-01T19:36:54;98587.44;;;10.39;75.23
62011;BME280;47967;51.756;10.174;2023-04-01T19:41:02;98595.34;;;10.34;75.75
62011;BME280;47967;51.756;10.174;2023-04-01T19:45:21;98604.56;;;10.45;76.00
62011;BME280;47967;51.756;10.174;2023-04-01T19:49:39;98616.78;;;10.29;75.63
62011;BME280;47967;51.756;10.174;2023-04-01T19:53:48;98617.53;;;9.99;76.30
62011;BME280;47967;51.756;10.174;2023-04-01T19:57:58;98622.25;;;9.85;76.81
62011;BME280;47967;51.756;10.174;2023-04-01T20:02:24;98639.44;;;9.66;76.87
62011;BME280;47967;51.756;10.174;2023-04-01T20:06:34;98649.63;;;9.64;76.93
62011;BME280;47967;51.756;10.174;2023-04-01T20:10:44;98657.66;;;9.45;76.85
62011;BME280;47967;51.756;10.174;2023-04-01T20:14:53;98671.28;;;9.50;76.67
62011;BME280;47967;51.756;10.174;2023-04-01T20:18:59;98683.03;;;9.31;76.82
62011;BME280;47967;51.756;10.174;2023-04-01T20:23:20;98687.75;;;9.35;77.10
62011;BME280;47967;51.756;10.174;2023-04-01T20:27:31;98694.38;;;9.07;77.19
62011;BME280;47967;51.756;10.174;2023-04-01T20:31:36;98705.16;;;9.01;76.95
62011;BME280;47967;51.756;10.174;2023-04-01T20:35:50;98712.72;;;8.85;77.12
62011;BME280;47967;51.756;10.174;2023-04-01T20:40:19;98710.22;;;8.84;77.87
62011;BME280;47967;51.756;10.174;2023-04-01T20:44:31;98725.38;;;8.71;77.41
62011;BME280;47967;51.756;10.174;2023-04-01T20:48:52;98721.69;;;8.65;78.07
62011;BME280;47967;51.756;10.174;2023-04-01T20:53:04;98724.03;;;8.48;77.96
62011;BME280;47967;51.756;10.174;2023-04-01T20:57:13;98743.72;;;8.29;77.81
